createdAt,value
2023-04-29T00:01:27.087Z,100023.48
2023-04-29T00:06:30.532Z,100018.95
2023-04-29T00:11:33.182Z,100018.51
2023-04-29T00:16:35.846Z,100008.58
2023-04-29T00:21:38.449Z,100007.41
2023-04-29T00:26:41.294Z,100004.89
2023-04-29T00:31:43.878Z,100003.41
2023-04-29T00:36:47.614Z,99997.60
2023-04-29T00:41:50.487Z,99995.61
2023-04-29T00:46:52.986Z,99994.30
2023-04-29T00:51:57.870Z,99989.66
2023-04-29T00:57:02.582Z,99990.55
2023-04-29T01:02:05.548Z,99992.23
2023-04-29T01:07:31.721Z,99986.79
2023-04-29T01:12:37.042Z,99982.16
2023-04-29T01:17:44.360Z,99976.84
2023-04-29T01:22:47.402Z,99978.41
2023-04-29T01:28:05.207Z,99973.66
2023-04-29T01:33:29.551Z,99968.06
2023-04-29T01:39:08.792Z,99966.95
2023-04-29T01:44:24.277Z,99961.16
2023-04-29T01:49:30.084Z,99959.67
2023-04-29T01:54:36.250Z,99956.84
2023-04-29T01:59:38.750Z,99950.23
2023-04-29T02:04:41.337Z,99945.23
2023-04-29T02:09:43.952Z,99939.41
2023-04-29T02:14:47.835Z,99938.58
2023-04-29T02:19:50.850Z,99936.90
2023-04-29T02:24:53.547Z,99935.70
2023-04-29T02:29:56.031Z,99931.89
2023-04-29T02:34:58.611Z,99930.46
2023-04-29T02:40:02.099Z,99929.06
2023-04-29T02:45:05.154Z,99922.49
2023-04-29T02:50:08.140Z,99920.69
2023-04-29T02:55:10.608Z,99920.30
2023-04-29T03:00:13.356Z,99917.15
2023-04-29T03:05:16.159Z,99909.49
2023-04-29T03:10:19.181Z,99914.56
2023-04-29T03:15:22.019Z,99910.30
2023-04-29T03:20:24.607Z,99904.23
2023-04-29T03:25:28.597Z,99897.98
2023-04-29T03:30:31.165Z,99897.73
2023-04-29T03:35:33.998Z,99898.77
2023-04-29T03:40:36.687Z,99894.69
2023-04-29T03:45:39.476Z,99892.04
2023-04-29T03:50:42.010Z,99889.18
2023-04-29T03:55:44.889Z,99888.42
2023-04-29T04:00:47.512Z,99890.63
2023-04-29T04:05:50.202Z,99892.14
2023-04-29T04:10:52.776Z,99894.92
2023-04-29T04:15:55.705Z,99892.58
2023-04-29T04:20:58.283Z,99890.05
2023-04-29T04:26:00.837Z,99889.79
2023-04-29T04:31:03.924Z,99890.43
2023-04-29T04:36:07.392Z,99891.75
2023-04-29T04:41:09.977Z,99891.61
2023-04-29T04:46:14.398Z,99893.83
2023-04-29T04:51:16.956Z,99896.11
2023-04-29T04:56:19.482Z,99891.55
2023-04-29T05:01:22.063Z,99890.58
2023-04-29T05:06:24.720Z,99894.76
2023-04-29T05:11:27.333Z,99895.29
2023-04-29T05:16:30.141Z,99898.07
2023-04-29T05:21:32.740Z,99898.48
2023-04-29T05:26:35.398Z,99899.52
2023-04-29T05:31:38.843Z,99898.30
2023-04-29T05:36:41.653Z,99895.48
2023-04-29T05:41:44.305Z,99896.83
2023-04-29T05:46:48.690Z,99892.49
2023-04-29T05:51:51.399Z,99891.23
2023-04-29T05:56:53.987Z,99886.39
2023-04-29T06:01:56.884Z,99881.05
2023-04-29T06:06:59.460Z,99875.60
2023-04-29T06:12:03.301Z,99881.63
2023-04-29T06:17:06.004Z,99878.18
2023-04-29T06:22:08.508Z,99876.27
2023-04-29T06:27:11.488Z,99878.75
2023-04-29T06:32:14.044Z,99875.45
2023-04-29T06:37:16.712Z,99881.10
2023-04-29T06:42:19.515Z,99881.71
2023-04-29T06:47:22.471Z,99883.95
2023-04-29T06:52:25.697Z,99883.83
2023-04-29T06:57:28.234Z,99873.63
2023-04-29T07:02:31.479Z,99871.75
2023-04-29T07:07:34.259Z,99875.95
2023-04-29T07:12:37.302Z,99872.86
2023-04-29T07:17:39.934Z,99870.71
2023-04-29T07:22:42.492Z,99873.55
2023-04-29T07:27:45.003Z,99880.56
2023-04-29T07:32:47.706Z,99880.11
2023-04-29T07:37:50.300Z,99886.48
2023-04-29T07:42:52.925Z,99886.90
2023-04-29T07:47:55.563Z,99888.70
2023-04-29T07:53:00.367Z,99888.54
2023-04-29T07:58:02.913Z,99888.71
2023-04-29T08:03:05.568Z,99885.27
2023-04-29T08:08:08.229Z,99887.89
2023-04-29T08:13:10.804Z,99885.58
2023-04-29T08:18:13.411Z,99889.80
2023-04-29T08:23:16.162Z,99888.16
2023-04-29T08:28:19.708Z,99885.64
2023-04-29T08:33:22.461Z,99885.34
2023-04-29T08:38:25.466Z,99882.01
2023-04-29T08:43:28.791Z,99872.95
2023-04-29T08:48:32.415Z,99870.91
2023-04-29T08:53:36.092Z,99871.23
2023-04-29T08:58:40.002Z,99868.06
2023-04-29T09:03:42.706Z,99866.48
2023-04-29T09:08:46.481Z,99865.86
2023-04-29T09:13:49.126Z,99865.13
2023-04-29T09:18:52.201Z,99869.36
2023-04-29T09:23:57.086Z,99868.50
2023-04-29T09:29:14.161Z,99870.97
2023-04-29T09:34:16.939Z,99866.75
2023-04-29T09:39:22.233Z,99870.87
2023-04-29T09:44:27.385Z,99871.88
2023-04-29T09:49:38.471Z,99870.11
2023-04-29T09:54:42.276Z,99867.42
2023-04-29T09:59:45.025Z,99858.16
2023-04-29T10:04:57.349Z,99853.92
2023-04-29T10:10:00.776Z,99847.46
2023-04-29T10:15:26.093Z,99841.16
2023-04-29T10:20:29.578Z,99838.77
2023-04-29T10:25:36.128Z,99834.30
2023-04-29T10:30:40.031Z,99831.45
2023-04-29T10:35:45.087Z,99830.64
2023-04-29T10:40:49.154Z,99826.02
2023-04-29T10:46:17.461Z,99827.48
2023-04-29T10:51:34.049Z,99829.35
2023-04-29T10:56:51.107Z,99821.73
2023-04-29T11:01:54.170Z,99817.94
2023-04-29T11:06:59.103Z,99817.64
2023-04-29T11:12:03.909Z,99813.31
2023-04-29T11:17:12.621Z,99807.46
2023-04-29T11:22:18.349Z,99805.59
2023-04-29T11:27:25.259Z,99800.86
2023-04-29T11:32:31.029Z,99795.03
2023-04-29T11:37:35.030Z,99789.84
2023-04-29T11:42:45.960Z,99784.13
2023-04-29T11:47:49.512Z,99784.38
2023-04-29T11:52:52.297Z,99782.16
2023-04-29T11:57:54.967Z,99777.38
2023-04-29T12:02:58.688Z,99774.00
2023-04-29T12:08:01.572Z,99775.97
2023-04-29T12:13:04.492Z,99770.14
2023-04-29T12:18:08.321Z,99767.73
2023-04-29T12:23:15.463Z,99764.50
2023-04-29T12:28:18.239Z,99765.00
2023-04-29T12:33:26.690Z,99761.88
2023-04-29T12:38:32.522Z,99754.15
2023-04-29T12:43:36.047Z,99754.26
2023-04-29T12:48:41.623Z,99749.21
2023-04-29T12:53:44.448Z,99747.89
2023-04-29T12:58:47.020Z,99749.59
2023-04-29T13:03:51.611Z,99740.63
2023-04-29T13:08:54.682Z,99731.61
2023-04-29T13:13:57.432Z,99724.91
2023-04-29T13:19:17.021Z,99723.73
2023-04-29T13:24:24.011Z,99717.91
2023-04-29T13:29:26.807Z,99711.92
2023-04-29T13:34:29.370Z,99705.08
2023-04-29T13:39:32.022Z,99698.98
2023-04-29T13:44:51.096Z,99696.80
2023-04-29T13:50:22.750Z,99694.55
2023-04-29T13:56:11.636Z,99690.33
2023-04-29T14:01:05.956Z,99687.86
2023-04-29T14:06:02.573Z,99684.61
2023-04-29T14:11:05.456Z,99678.90
2023-04-29T14:16:09.412Z,99676.19
2023-04-29T14:21:12.526Z,99676.48
2023-04-29T14:31:20.899Z,99668.67
2023-04-29T14:36:24.046Z,99664.83
2023-04-29T14:41:27.712Z,99662.48
2023-04-29T14:46:32.297Z,99659.51
2023-04-29T14:51:35.297Z,99650.31
2023-04-29T14:56:37.947Z,99646.21
2023-04-29T15:01:40.546Z,99647.13
2023-04-29T15:06:43.355Z,99650.27
2023-04-29T15:11:46.147Z,99649.27
2023-04-29T15:16:49.115Z,99639.93
2023-04-29T15:21:52.395Z,99637.81
2023-04-29T15:26:54.945Z,99635.81
2023-04-29T15:31:57.633Z,99636.77
2023-04-29T15:37:00.324Z,99636.71
2023-04-29T15:42:03.830Z,99636.59
2023-04-29T15:47:06.477Z,99633.20
2023-04-29T15:52:09.448Z,99635.09
2023-04-29T15:57:11.998Z,99636.11
2023-04-29T16:02:15.308Z,99635.04
2023-04-29T16:07:18.264Z,99639.88
2023-04-29T16:12:21.060Z,99644.47
2023-04-29T16:17:23.751Z,99643.68
2023-04-29T16:22:27.905Z,99646.11
2023-04-29T16:27:30.685Z,99651.06
2023-04-29T16:32:34.438Z,99655.52
2023-04-29T16:37:37.460Z,99660.09
2023-04-29T16:42:40.002Z,99660.50
2023-04-29T16:47:42.625Z,99663.48
2023-04-29T16:52:45.798Z,99662.64
2023-04-29T16:57:48.353Z,99661.23
2023-04-29T17:02:51.484Z,99664.73
2023-04-29T17:07:55.191Z,99678.73
2023-04-29T17:12:57.761Z,99686.44
2023-04-29T17:18:00.372Z,99697.31
2023-04-29T17:23:03.451Z,99691.31
2023-04-29T17:28:06.401Z,99690.59
2023-04-29T17:33:09.070Z,99692.33
2023-04-29T17:38:12.258Z,99688.38
2023-04-29T17:43:15.057Z,99688.10
2023-04-29T17:48:19.276Z,99688.56
2023-04-29T17:53:21.810Z,99685.66
2023-04-29T17:58:24.378Z,99686.86
2023-04-29T18:03:27.447Z,99682.83
2023-04-29T18:08:30.273Z,99683.52
2023-04-29T18:13:34.436Z,99686.08
2023-04-29T18:18:37.328Z,99686.80
2023-04-29T18:23:40.721Z,99690.08
2023-04-29T18:28:44.748Z,99695.29
2023-04-29T18:33:47.284Z,99704.45
2023-04-29T18:38:50.378Z,99710.11
2023-04-29T18:43:53.302Z,99708.36
2023-04-29T18:48:56.334Z,99711.87
2023-04-29T18:53:58.929Z,99715.79
2023-04-29T18:59:01.557Z,99719.71
2023-04-29T19:04:06.861Z,99719.31
2023-04-29T19:09:11.353Z,99721.63
2023-04-29T19:14:13.952Z,99721.04
2023-04-29T19:19:16.694Z,99721.91
2023-04-29T19:24:19.501Z,99720.95
2023-04-29T19:29:22.007Z,99714.26
2023-04-29T19:34:25.302Z,99716.01
2023-04-29T19:39:28.824Z,99721.29
2023-04-29T19:44:31.506Z,99728.79
2023-04-29T19:49:34.128Z,99735.39
2023-04-29T19:54:37.011Z,99735.84
2023-04-29T19:59:39.538Z,99740.47
2023-04-29T20:04:42.185Z,99747.27
2023-04-29T20:09:45.735Z,99756.19
2023-04-29T20:14:48.555Z,99761.59
2023-04-29T20:19:51.770Z,99768.36
2023-04-29T20:24:54.751Z,99766.45
2023-04-29T20:29:57.423Z,99764.50
2023-04-29T20:35:00.079Z,99764.34
2023-04-29T20:40:06.279Z,99763.77
2023-04-29T20:45:09.615Z,99767.58
2023-04-29T20:50:12.352Z,99768.71
2023-04-29T20:55:15.909Z,99772.73
2023-04-29T21:00:18.495Z,99779.33
2023-04-29T21:05:21.328Z,99784.16
2023-04-29T21:10:24.098Z,99797.96
2023-04-29T21:15:27.699Z,99800.83
2023-04-29T21:20:30.421Z,99801.50
2023-04-29T21:25:32.995Z,99805.78
2023-04-29T21:30:36.080Z,99807.79
2023-04-29T21:35:41.873Z,99800.52
2023-04-29T21:40:47.295Z,99802.31
2023-04-29T21:45:50.280Z,99804.80
2023-04-29T21:50:52.863Z,99808.49
2023-04-29T21:55:55.488Z,99818.70
2023-04-29T22:01:01.172Z,99821.59
2023-04-29T22:06:03.984Z,99806.21
2023-04-29T22:11:06.596Z,99808.36
2023-04-29T22:16:09.145Z,99826.02
2023-04-29T22:21:11.740Z,99843.47
2023-04-29T22:26:14.795Z,99848.27
2023-04-29T22:31:17.336Z,99841.71
2023-04-29T22:36:19.876Z,99844.73
2023-04-29T22:41:22.407Z,99845.75
2023-04-29T22:46:25.739Z,99853.28
2023-04-29T22:51:28.421Z,99865.33
2023-04-29T22:56:30.940Z,99866.52
2023-04-29T23:01:33.534Z,99870.67
2023-04-29T23:06:36.308Z,99881.48
2023-04-29T23:11:39.020Z,99882.73
2023-04-29T23:16:41.580Z,99885.14
2023-04-29T23:21:44.103Z,99891.52
2023-04-29T23:26:46.792Z,99895.36
2023-04-29T23:31:49.431Z,99895.38
2023-04-29T23:36:52.063Z,99895.41
2023-04-29T23:41:54.598Z,99897.95
2023-04-29T23:46:57.125Z,99899.20
2023-04-29T23:51:59.698Z,99902.20
2023-04-29T23:57:02.661Z,99903.02
